createdAt,value
2017-12-28T10:31:25.730Z,7.87
2017-12-28T10:33:52.810Z,6.40
2017-12-28T10:36:20.363Z,6.63
2017-12-28T10:38:47.439Z,5.87
2017-12-28T10:41:14.232Z,6.70
2017-12-28T10:43:41.178Z,5.90
2017-12-28T10:46:08.068Z,5.13
2017-12-28T10:48:36.706Z,5.67
2017-12-28T10:51:03.496Z,5.60
2017-12-28T10:53:30.357Z,5.00
2017-12-28T10:55:57.155Z,6.00
2017-12-28T10:58:24.247Z,5.47
2017-12-28T11:00:51.964Z,4.17
2017-12-28T11:03:18.921Z,6.03
2017-12-28T11:05:46.742Z,5.17
2017-12-28T11:08:13.669Z,5.60
2017-12-28T11:10:40.396Z,4.70
2017-12-28T11:13:07.185Z,5.03
2017-12-28T11:15:36.999Z,5.20
2017-12-28T11:18:03.690Z,4.40
2017-12-28T11:20:30.542Z,4.20
2017-12-28T11:22:57.553Z,3.60
2017-12-28T11:25:24.509Z,4.70
2017-12-28T11:27:51.190Z,4.60
2017-12-28T11:30:18.197Z,5.10
2017-12-28T11:32:45.092Z,4.20
2017-12-28T11:35:13.143Z,4.80
2017-12-28T11:37:39.894Z,4.43
2017-12-28T11:40:06.752Z,4.50
2017-12-28T11:42:34.069Z,5.00
2017-12-28T11:45:01.034Z,4.67
2017-12-28T11:47:27.901Z,5.70
2017-12-28T11:49:54.813Z,4.73
2017-12-28T11:52:26.268Z,4.53
2017-12-28T11:54:53.383Z,5.10
2017-12-28T11:57:24.135Z,4.20
2017-12-28T11:59:54.989Z,5.03
2017-12-28T12:02:27.783Z,4.70
2017-12-28T12:04:54.822Z,4.60
2017-12-28T12:07:36.584Z,4.53
2017-12-28T12:10:17.442Z,4.93
2017-12-28T12:12:45.508Z,4.07
2017-12-28T12:15:13.595Z,4.10
2017-12-28T12:17:40.764Z,4.40
2017-12-28T12:20:07.718Z,4.40
2017-12-28T12:25:22.472Z,4.87
2017-12-28T12:27:50.275Z,3.63
2017-12-28T12:30:16.991Z,5.23
2017-12-28T12:32:45.804Z,4.83
2017-12-28T12:35:12.967Z,4.57
2017-12-28T12:37:39.975Z,4.00
2017-12-28T12:40:07.901Z,4.00
2017-12-28T12:42:35.069Z,3.87
2017-12-28T12:45:03.700Z,3.70
2017-12-28T12:47:30.919Z,4.03
2017-12-28T12:49:57.595Z,4.63
2017-12-28T12:52:24.390Z,4.00
2017-12-28T12:54:51.411Z,3.73
2017-12-28T12:57:18.179Z,3.83
2017-12-28T12:59:45.133Z,4.30
2017-12-28T13:02:12.107Z,3.90
2017-12-28T13:04:39.045Z,3.93
2017-12-28T13:07:05.806Z,4.90
2017-12-28T13:09:32.923Z,4.30
2017-12-28T13:12:00.733Z,4.43
2017-12-28T13:14:27.486Z,3.17
2017-12-28T13:16:54.313Z,3.70
2017-12-28T13:19:21.876Z,4.17
2017-12-28T13:21:49.023Z,4.00
2017-12-28T13:24:15.960Z,3.63
2017-12-28T13:26:42.956Z,4.40
2017-12-28T13:29:09.815Z,3.80
2017-12-28T13:31:36.634Z,4.60
2017-12-28T13:34:03.685Z,3.40
2017-12-28T13:36:30.652Z,3.67
2017-12-28T13:39:08.448Z,3.60
2017-12-28T13:41:35.166Z,4.03
2017-12-28T13:44:02.010Z,3.73
2017-12-28T13:46:28.952Z,3.50
2017-12-28T13:49:01.905Z,3.37
2017-12-28T13:51:29.565Z,3.77
2017-12-28T13:54:06.475Z,4.53
2017-12-28T13:56:34.086Z,3.43
2017-12-28T13:59:01.387Z,3.60
2017-12-28T14:01:28.693Z,3.50
2017-12-28T14:03:55.480Z,3.70
2017-12-28T14:06:23.243Z,3.47
2017-12-28T14:08:50.336Z,3.77
2017-12-28T14:11:17.226Z,3.70
2017-12-28T14:13:43.963Z,3.50
2017-12-28T14:16:12.180Z,4.23
2017-12-28T14:18:39.295Z,3.73
2017-12-28T14:21:06.326Z,4.53
2017-12-28T14:26:21.425Z,4.13
2017-12-28T14:29:09.261Z,4.30
2017-12-28T14:31:37.622Z,4.30
2017-12-28T14:34:05.094Z,4.30
2017-12-28T14:36:36.645Z,4.00
2017-12-28T14:39:03.704Z,4.60
2017-12-28T14:44:03.482Z,5.00
2017-12-28T14:46:30.465Z,5.50
2017-12-28T14:48:57.118Z,3.93
2017-12-28T14:51:24.150Z,4.97
2017-12-28T14:53:51.379Z,4.00
2017-12-28T14:56:18.390Z,4.60
2017-12-28T14:58:45.974Z,4.73
2017-12-28T15:01:16.084Z,5.33
2017-12-28T15:03:43.044Z,4.57
2017-12-28T15:06:23.221Z,4.07
2017-12-28T15:08:52.076Z,4.13
2017-12-28T15:11:20.344Z,4.60
2017-12-28T15:13:47.148Z,4.93
2017-12-28T15:16:14.652Z,4.80
2017-12-28T15:18:41.738Z,4.87
2017-12-28T15:21:08.874Z,4.33
2017-12-28T15:23:35.737Z,5.20
2017-12-28T15:26:17.420Z,4.97
2017-12-28T15:28:45.049Z,5.00
2017-12-28T15:31:12.640Z,4.23
2017-12-28T15:33:39.545Z,5.03
2017-12-28T15:36:06.614Z,5.20
2017-12-28T15:38:43.800Z,4.93
2017-12-28T15:41:10.539Z,4.70
2017-12-28T15:43:37.279Z,4.77
2017-12-28T15:46:04.077Z,5.23
2017-12-28T15:48:30.927Z,5.10
2017-12-28T15:50:58.318Z,5.67
2017-12-28T15:53:25.108Z,5.13
2017-12-28T15:56:06.094Z,6.53
2017-12-28T15:58:32.984Z,4.47
2017-12-28T16:01:00.032Z,6.50
2017-12-28T16:06:07.615Z,5.63
2017-12-28T16:14:23.815Z,5.83
2017-12-28T16:20:04.903Z,5.70
2017-12-28T16:22:43.512Z,5.87
2017-12-28T16:25:24.499Z,6.80
2017-12-28T16:28:08.804Z,6.63
2017-12-28T16:33:32.273Z,6.00
2017-12-28T16:36:00.579Z,6.47
2017-12-28T16:39:00.245Z,6.30
2017-12-28T16:41:50.156Z,6.60
2017-12-28T16:44:24.253Z,7.23
2017-12-28T16:46:53.736Z,6.87
2017-12-28T16:49:20.435Z,7.80
2017-12-28T16:51:53.718Z,7.20
2017-12-28T16:54:31.823Z,7.10
2017-12-28T16:59:39.854Z,6.10
2017-12-28T17:02:11.429Z,7.57
2017-12-28T17:04:50.484Z,6.97
2017-12-28T17:07:21.200Z,6.33
2017-12-28T17:27:47.084Z,5.97
2017-12-28T17:30:15.716Z,6.70
2017-12-28T17:32:46.630Z,7.33
2017-12-28T17:35:14.986Z,6.73
2017-12-28T17:37:42.806Z,7.80
2017-12-28T17:40:14.636Z,7.30
2017-12-28T17:56:45.064Z,8.17
2017-12-28T17:59:25.120Z,8.90
